sensor_id;sensor_type;location;lat;lon;timestamp;P1;durP1;ratioP1;P2;durP2;ratioP2
35506;SDS011;36461;52.018;21.036;2022-10-31T00:01:19;30.88;;;23.90;;
35506;SDS011;36461;52.018;21.036;2022-10-31T00:03:49;36.75;;;24.50;;
35506;SDS011;36461;52.018;21.036;2022-10-31T00:06:15;32.17;;;24.18;;
35506;SDS011;36461;52.018;21.036;2022-10-31T00:08:52;37.70;;;24.37;;
35506;SDS011;36461;52.018;21.036;2022-10-31T00:11:23;38.90;;;25.48;;
35506;SDS011;36461;52.018;21.036;2022-10-31T00:13:50;37.17;;;25.62;;
35506;SDS011;36461;52.018;21.036;2022-10-31T00:16:19;37.28;;;25.62;;
35506;SDS011;36461;52.018;21.036;2022-10-31T00:18:48;37.48;;;25.88;;
35506;SDS011;36461;52.018;21.036;2022-10-31T00:21:16;41.85;;;25.90;;
35506;SDS011;36461;52.018;21.036;2022-10-31T00:23:44;39.10;;;26.97;;
35506;SDS011;36461;52.018;21.036;2022-10-31T00:26:12;42.78;;;28.42;;
35506;SDS011;36461;52.018;21.036;2022-10-31T00:31:07;42.85;;;30.48;;
35506;SDS011;36461;52.018;21.036;2022-10-31T00:33:36;44.13;;;32.80;;
35506;SDS011;36461;52.018;21.036;2022-10-31T00:36:04;47.90;;;33.13;;
35506;SDS011;36461;52.018;21.036;2022-10-31T00:38:32;49.67;;;32.40;;
35506;SDS011;36461;52.018;21.036;2022-10-31T00:40:59;50.50;;;32.42;;
35506;SDS011;36461;52.018;21.036;2022-10-31T00:43:26;50.38;;;32.30;;
35506;SDS011;36461;52.018;21.036;2022-10-31T00:45:52;45.23;;;31.97;;
35506;SDS011;36461;52.018;21.036;2022-10-31T00:50:46;46.08;;;32.73;;
35506;SDS011;36461;52.018;21.036;2022-10-31T00:53:13;50.20;;;33.10;;
35506;SDS011;36461;52.018;21.036;2022-10-31T00:55:40;48.23;;;33.40;;
35506;SDS011;36461;52.018;21.036;2022-10-31T00:58:06;48.17;;;34.30;;
35506;SDS011;36461;52.018;21.036;2022-10-31T01:00:32;52.55;;;33.40;;
35506;SDS011;36461;52.018;21.036;2022-10-31T01:02:59;47.27;;;33.45;;
35506;SDS011;36461;52.018;21.036;2022-10-31T01:05:26;42.27;;;32.40;;
35506;SDS011;36461;52.018;21.036;2022-10-31T01:07:52;48.15;;;33.40;;
35506;SDS011;36461;52.018;21.036;2022-10-31T01:10:19;44.23;;;30.40;;
35506;SDS011;36461;52.018;21.036;2022-10-31T01:12:46;45.63;;;32.75;;
35506;SDS011;36461;52.018;21.036;2022-10-31T01:15:17;45.67;;;30.90;;
35506;SDS011;36461;52.018;21.036;2022-10-31T01:17:45;47.98;;;31.73;;
35506;SDS011;36461;52.018;21.036;2022-10-31T01:20:13;46.28;;;31.42;;
35506;SDS011;36461;52.018;21.036;2022-10-31T01:22:41;48.68;;;31.82;;
35506;SDS011;36461;52.018;21.036;2022-10-31T01:27:36;46.15;;;32.10;;
35506;SDS011;36461;52.018;21.036;2022-10-31T01:30:05;50.92;;;32.30;;
35506;SDS011;36461;52.018;21.036;2022-10-31T01:32:33;46.18;;;32.53;;
35506;SDS011;36461;52.018;21.036;2022-10-31T01:34:59;44.80;;;32.98;;
35506;SDS011;36461;52.018;21.036;2022-10-31T01:37:26;49.13;;;33.88;;
35506;SDS011;36461;52.018;21.036;2022-10-31T01:39:52;47.43;;;33.18;;
35506;SDS011;36461;52.018;21.036;2022-10-31T01:42:19;50.38;;;33.40;;
35506;SDS011;36461;52.018;21.036;2022-10-31T01:44:50;48.10;;;33.13;;
35506;SDS011;36461;52.018;21.036;2022-10-31T01:47:21;47.93;;;31.82;;
35506;SDS011;36461;52.018;21.036;2022-10-31T01:50:06;53.58;;;34.10;;
35506;SDS011;36461;52.018;21.036;2022-10-31T01:52:43;48.20;;;31.57;;
35506;SDS011;36461;52.018;21.036;2022-10-31T01:55:16;46.40;;;32.00;;
35506;SDS011;36461;52.018;21.036;2022-10-31T01:57:48;45.85;;;30.80;;
35506;SDS011;36461;52.018;21.036;2022-10-31T02:00:17;44.73;;;31.12;;
35506;SDS011;36461;52.018;21.036;2022-10-31T02:02:46;43.17;;;30.23;;
35506;SDS011;36461;52.018;21.036;2022-10-31T02:05:16;47.00;;;30.00;;
35506;SDS011;36461;52.018;21.036;2022-10-31T02:10:36;42.98;;;29.67;;
35506;SDS011;36461;52.018;21.036;2022-10-31T02:13:04;43.28;;;29.98;;
35506;SDS011;36461;52.018;21.036;2022-10-31T02:15:36;41.18;;;28.52;;
35506;SDS011;36461;52.018;21.036;2022-10-31T02:18:04;44.77;;;29.45;;
35506;SDS011;36461;52.018;21.036;2022-10-31T02:20:35;42.93;;;27.87;;
35506;SDS011;36461;52.018;21.036;2022-10-31T02:33:02;41.95;;;27.67;;
35506;SDS011;36461;52.018;21.036;2022-10-31T02:36:08;38.85;;;26.48;;
35506;SDS011;36461;52.018;21.036;2022-10-31T02:44:25;41.30;;;27.87;;
35506;SDS011;36461;52.018;21.036;2022-10-31T02:47:16;45.33;;;27.75;;
35506;SDS011;36461;52.018;21.036;2022-10-31T02:49:45;36.90;;;27.07;;
35506;SDS011;36461;52.018;21.036;2022-10-31T02:54:49;46.02;;;29.07;;
35506;SDS011;36461;52.018;21.036;2022-10-31T02:57:20;41.37;;;27.85;;
35506;SDS011;36461;52.018;21.036;2022-10-31T02:59:55;42.65;;;29.35;;
35506;SDS011;36461;52.018;21.036;2022-10-31T03:05:50;40.63;;;28.67;;
35506;SDS011;36461;52.018;21.036;2022-10-31T03:11:16;39.27;;;28.47;;
35506;SDS011;36461;52.018;21.036;2022-10-31T03:13:56;44.25;;;30.17;;
35506;SDS011;36461;52.018;21.036;2022-10-31T03:19:16;42.93;;;29.75;;
35506;SDS011;36461;52.018;21.036;2022-10-31T03:21:56;44.63;;;30.52;;
35506;SDS011;36461;52.018;21.036;2022-10-31T03:24:33;42.05;;;28.27;;
35506;SDS011;36461;52.018;21.036;2022-10-31T03:27:03;44.45;;;29.65;;
35506;SDS011;36461;52.018;21.036;2022-10-31T03:29:34;44.98;;;28.73;;
35506;SDS011;36461;52.018;21.036;2022-10-31T03:32:07;46.40;;;31.23;;
35506;SDS011;36461;52.018;21.036;2022-10-31T03:34:46;38.63;;;27.82;;
35506;SDS011;36461;52.018;21.036;2022-10-31T03:37:17;43.92;;;31.33;;
35506;SDS011;36461;52.018;21.036;2022-10-31T03:39:45;42.62;;;30.12;;
35506;SDS011;36461;52.018;21.036;2022-10-31T03:42:24;44.73;;;29.27;;
35506;SDS011;36461;52.018;21.036;2022-10-31T03:44:59;44.38;;;30.70;;
35506;SDS011;36461;52.018;21.036;2022-10-31T03:47:41;43.60;;;30.55;;
35506;SDS011;36461;52.018;21.036;2022-10-31T03:50:10;39.33;;;28.47;;
35506;SDS011;36461;52.018;21.036;2022-10-31T03:52:46;46.35;;;29.07;;
35506;SDS011;36461;52.018;21.036;2022-10-31T03:55:19;41.65;;;29.32;;
35506;SDS011;36461;52.018;21.036;2022-10-31T03:57:57;42.10;;;29.30;;
35506;SDS011;36461;52.018;21.036;2022-10-31T04:00:30;43.98;;;28.65;;
35506;SDS011;36461;52.018;21.036;2022-10-31T04:03:00;42.73;;;28.47;;
35506;SDS011;36461;52.018;21.036;2022-10-31T04:05:36;42.13;;;28.50;;
35506;SDS011;36461;52.018;21.036;2022-10-31T04:08:06;43.15;;;29.35;;
35506;SDS011;36461;52.018;21.036;2022-10-31T04:10:37;42.08;;;30.02;;
35506;SDS011;36461;52.018;21.036;2022-10-31T04:13:08;43.85;;;29.85;;
35506;SDS011;36461;52.018;21.036;2022-10-31T04:15:44;37.40;;;27.48;;
35506;SDS011;36461;52.018;21.036;2022-10-31T04:18:12;41.15;;;29.07;;
35506;SDS011;36461;52.018;21.036;2022-10-31T04:20:40;43.75;;;28.17;;
35506;SDS011;36461;52.018;21.036;2022-10-31T04:23:13;36.48;;;25.20;;
35506;SDS011;36461;52.018;21.036;2022-10-31T04:25:40;37.35;;;25.30;;
35506;SDS011;36461;52.018;21.036;2022-10-31T04:28:06;34.13;;;24.12;;
35506;SDS011;36461;52.018;21.036;2022-10-31T04:30:33;34.67;;;25.15;;
35506;SDS011;36461;52.018;21.036;2022-10-31T04:32:59;38.80;;;26.68;;
35506;SDS011;36461;52.018;21.036;2022-10-31T04:35:26;38.53;;;26.82;;
35506;SDS011;36461;52.018;21.036;2022-10-31T04:37:53;40.78;;;27.77;;
35506;SDS011;36461;52.018;21.036;2022-10-31T04:40:20;37.13;;;26.40;;
35506;SDS011;36461;52.018;21.036;2022-10-31T04:42:54;36.42;;;25.68;;
35506;SDS011;36461;52.018;21.036;2022-10-31T04:47:49;34.25;;;23.47;;
35506;SDS011;36461;52.018;21.036;2022-10-31T04:50:15;32.33;;;23.62;;
35506;SDS011;36461;52.018;21.036;2022-10-31T04:52:42;35.03;;;23.92;;
35506;SDS011;36461;52.018;21.036;2022-10-31T04:55:12;32.88;;;23.45;;
35506;SDS011;36461;52.018;21.036;2022-10-31T05:00:24;32.98;;;22.85;;
35506;SDS011;36461;52.018;21.036;2022-10-31T05:02:54;32.20;;;22.65;;
35506;SDS011;36461;52.018;21.036;2022-10-31T05:05:24;30.08;;;23.02;;
35506;SDS011;36461;52.018;21.036;2022-10-31T05:07:54;43.08;;;23.30;;
35506;SDS011;36461;52.018;21.036;2022-10-31T05:10:25;31.57;;;23.27;;
35506;SDS011;36461;52.018;21.036;2022-10-31T05:12:55;32.60;;;24.00;;
35506;SDS011;36461;52.018;21.036;2022-10-31T05:15:43;31.55;;;23.40;;
35506;SDS011;36461;52.018;21.036;2022-10-31T05:18:17;32.90;;;23.12;;
35506;SDS011;36461;52.018;21.036;2022-10-31T05:21:02;33.33;;;24.00;;
35506;SDS011;36461;52.018;21.036;2022-10-31T05:23:36;35.13;;;24.15;;
35506;SDS011;36461;52.018;21.036;2022-10-31T05:26:04;32.95;;;23.92;;
35506;SDS011;36461;52.018;21.036;2022-10-31T05:28:32;37.95;;;26.80;;
35506;SDS011;36461;52.018;21.036;2022-10-31T05:30:59;37.08;;;25.48;;
35506;SDS011;36461;52.018;21.036;2022-10-31T05:33:25;37.65;;;25.30;;
35506;SDS011;36461;52.018;21.036;2022-10-31T05:35:53;38.53;;;26.37;;
35506;SDS011;36461;52.018;21.036;2022-10-31T05:38:25;33.02;;;23.95;;
35506;SDS011;36461;52.018;21.036;2022-10-31T05:40:56;38.28;;;26.62;;
35506;SDS011;36461;52.018;21.036;2022-10-31T05:43:30;34.13;;;24.50;;
35506;SDS011;36461;52.018;21.036;2022-10-31T05:45:56;37.42;;;26.95;;
35506;SDS011;36461;52.018;21.036;2022-10-31T05:48:28;39.05;;;25.32;;
35506;SDS011;36461;52.018;21.036;2022-10-31T05:51:12;37.17;;;25.05;;
35506;SDS011;36461;52.018;21.036;2022-10-31T05:53:38;36.33;;;24.57;;
35506;SDS011;36461;52.018;21.036;2022-10-31T05:58:32;31.48;;;22.15;;
35506;SDS011;36461;52.018;21.036;2022-10-31T06:01:00;33.98;;;22.73;;
35506;SDS011;36461;52.018;21.036;2022-10-31T06:05:57;29.70;;;21.85;;
35506;SDS011;36461;52.018;21.036;2022-10-31T06:08:25;30.02;;;20.65;;
35506;SDS011;36461;52.018;21.036;2022-10-31T06:10:54;31.70;;;22.30;;
35506;SDS011;36461;52.018;21.036;2022-10-31T06:13:22;30.10;;;22.40;;
35506;SDS011;36461;52.018;21.036;2022-10-31T06:15:53;31.80;;;23.57;;
35506;SDS011;36461;52.018;21.036;2022-10-31T06:18:21;31.87;;;24.10;;
35506;SDS011;36461;52.018;21.036;2022-10-31T06:20:49;36.42;;;24.27;;
35506;SDS011;36461;52.018;21.036;2022-10-31T06:23:17;32.90;;;22.52;;
35506;SDS011;36461;52.018;21.036;2022-10-31T06:25:48;30.08;;;21.57;;
35506;SDS011;36461;52.018;21.036;2022-10-31T06:28:16;31.68;;;22.48;;
35506;SDS011;36461;52.018;21.036;2022-10-31T06:30:47;28.83;;;19.98;;
35506;SDS011;36461;52.018;21.036;2022-10-31T06:33:14;26.65;;;19.48;;
35506;SDS011;36461;52.018;21.036;2022-10-31T06:35:46;23.15;;;18.10;;
35506;SDS011;36461;52.018;21.036;2022-10-31T06:38:14;25.88;;;18.57;;
35506;SDS011;36461;52.018;21.036;2022-10-31T06:40:42;25.00;;;18.23;;
35506;SDS011;36461;52.018;21.036;2022-10-31T06:43:22;24.00;;;18.23;;
35506;SDS011;36461;52.018;21.036;2022-10-31T06:45:50;23.75;;;17.67;;
35506;SDS011;36461;52.018;21.036;2022-10-31T06:48:24;27.27;;;17.75;;
35506;SDS011;36461;52.018;21.036;2022-10-31T06:50:59;22.65;;;17.20;;
35506;SDS011;36461;52.018;21.036;2022-10-31T06:53:27;23.02;;;16.55;;
35506;SDS011;36461;52.018;21.036;2022-10-31T06:55:57;22.75;;;16.50;;
35506;SDS011;36461;52.018;21.036;2022-10-31T06:58:24;21.45;;;15.20;;
35506;SDS011;36461;52.018;21.036;2022-10-31T07:00:51;20.57;;;14.05;;
35506;SDS011;36461;52.018;21.036;2022-10-31T07:03:18;18.98;;;14.07;;
35506;SDS011;36461;52.018;21.036;2022-10-31T07:05:46;19.50;;;14.28;;
35506;SDS011;36461;52.018;21.036;2022-10-31T07:08:14;17.42;;;14.00;;
35506;SDS011;36461;52.018;21.036;2022-10-31T07:10:41;18.52;;;13.95;;
35506;SDS011;36461;52.018;21.036;2022-10-31T07:13:13;19.45;;;14.03;;
35506;SDS011;36461;52.018;21.036;2022-10-31T07:15:42;19.35;;;13.53;;
35506;SDS011;36461;52.018;21.036;2022-10-31T07:18:10;17.70;;;13.43;;
35506;SDS011;36461;52.018;21.036;2022-10-31T07:20:39;16.27;;;12.25;;
35506;SDS011;36461;52.018;21.036;2022-10-31T07:23:05;16.42;;;13.35;;
35506;SDS011;36461;52.018;21.036;2022-10-31T07:25:32;15.93;;;12.20;;
35506;SDS011;36461;52.018;21.036;2022-10-31T07:28:03;17.45;;;12.20;;
35506;SDS011;36461;52.018;21.036;2022-10-31T07:30:30;16.73;;;12.55;;
35506;SDS011;36461;52.018;21.036;2022-10-31T07:32:56;17.77;;;12.43;;
35506;SDS011;36461;52.018;21.036;2022-10-31T07:35:26;14.68;;;10.95;;
35506;SDS011;36461;52.018;21.036;2022-10-31T07:37:57;14.25;;;10.70;;
35506;SDS011;36461;52.018;21.036;2022-10-31T07:40:27;11.33;;;10.08;;
35506;SDS011;36461;52.018;21.036;2022-10-31T07:42:55;15.78;;;11.48;;
35506;SDS011;36461;52.018;21.036;2022-10-31T07:45:43;14.85;;;11.20;;
35506;SDS011;36461;52.018;21.036;2022-10-31T07:48:34;13.90;;;11.18;;
35506;SDS011;36461;52.018;21.036;2022-10-31T07:51:10;19.23;;;14.70;;
35506;SDS011;36461;52.018;21.036;2022-10-31T07:53:57;16.52;;;13.28;;
35506;SDS011;36461;52.018;21.036;2022-10-31T07:56:25;16.65;;;13.38;;
35506;SDS011;36461;52.018;21.036;2022-10-31T07:58:52;17.77;;;12.55;;
35506;SDS011;36461;52.018;21.036;2022-10-31T08:01:18;15.20;;;12.53;;
35506;SDS011;36461;52.018;21.036;2022-10-31T08:03:46;14.38;;;11.78;;
35506;SDS011;36461;52.018;21.036;2022-10-31T08:06:31;15.10;;;12.33;;
35506;SDS011;36461;52.018;21.036;2022-10-31T08:09:04;12.70;;;11.35;;
35506;SDS011;36461;52.018;21.036;2022-10-31T08:11:31;13.98;;;11.88;;
35506;SDS011;36461;52.018;21.036;2022-10-31T08:13:57;17.05;;;12.23;;
35506;SDS011;36461;52.018;21.036;2022-10-31T08:16:24;14.65;;;12.10;;
35506;SDS011;36461;52.018;21.036;2022-10-31T08:18:52;16.90;;;12.58;;
35506;SDS011;36461;52.018;21.036;2022-10-31T08:21:21;15.95;;;13.25;;
35506;SDS011;36461;52.018;21.036;2022-10-31T08:23:49;17.25;;;13.53;;
35506;SDS011;36461;52.018;21.036;2022-10-31T08:26:17;19.82;;;14.38;;
35506;SDS011;36461;52.018;21.036;2022-10-31T08:28:45;18.57;;;14.58;;
35506;SDS011;36461;52.018;21.036;2022-10-31T08:31:12;18.52;;;14.10;;
35506;SDS011;36461;52.018;21.036;2022-10-31T08:33:39;24.12;;;16.85;;
35506;SDS011;36461;52.018;21.036;2022-10-31T08:36:17;21.73;;;15.32;;
35506;SDS011;36461;52.018;21.036;2022-10-31T08:38:52;20.37;;;15.20;;
35506;SDS011;36461;52.018;21.036;2022-10-31T08:41:19;19.15;;;14.50;;
35506;SDS011;36461;52.018;21.036;2022-10-31T08:43:46;19.05;;;15.08;;
35506;SDS011;36461;52.018;21.036;2022-10-31T08:46:14;18.60;;;14.68;;
35506;SDS011;36461;52.018;21.036;2022-10-31T08:48:42;19.55;;;15.38;;
35506;SDS011;36461;52.018;21.036;2022-10-31T08:51:09;23.90;;;16.90;;
35506;SDS011;36461;52.018;21.036;2022-10-31T08:53:37;19.40;;;15.25;;
35506;SDS011;36461;52.018;21.036;2022-10-31T08:56:11;20.48;;;15.20;;
35506;SDS011;36461;52.018;21.036;2022-10-31T08:58:37;20.50;;;15.18;;
35506;SDS011;36461;52.018;21.036;2022-10-31T09:01:04;21.97;;;15.75;;
35506;SDS011;36461;52.018;21.036;2022-10-31T09:03:31;19.90;;;15.28;;
35506;SDS011;36461;52.018;21.036;2022-10-31T09:06:00;20.65;;;15.55;;
35506;SDS011;36461;52.018;21.036;2022-10-31T09:08:29;21.90;;;16.23;;
35506;SDS011;36461;52.018;21.036;2022-10-31T09:10:57;19.73;;;15.75;;
35506;SDS011;36461;52.018;21.036;2022-10-31T09:13:26;19.60;;;14.93;;
35506;SDS011;36461;52.018;21.036;2022-10-31T09:16:04;19.00;;;14.83;;
35506;SDS011;36461;52.018;21.036;2022-10-31T09:18:33;21.85;;;15.13;;
35506;SDS011;36461;52.018;21.036;2022-10-31T09:23:29;22.95;;;15.50;;
35506;SDS011;36461;52.018;21.036;2022-10-31T09:25:59;22.60;;;16.82;;
35506;SDS011;36461;52.018;21.036;2022-10-31T09:28:30;21.02;;;16.57;;
35506;SDS011;36461;52.018;21.036;2022-10-31T09:31:03;20.80;;;15.95;;
35506;SDS011;36461;52.018;21.036;2022-10-31T09:33:49;21.80;;;15.93;;
35506;SDS011;36461;52.018;21.036;2022-10-31T09:36:20;23.22;;;16.30;;
35506;SDS011;36461;52.018;21.036;2022-10-31T09:38:46;21.15;;;15.58;;
35506;SDS011;36461;52.018;21.036;2022-10-31T09:41:16;21.75;;;15.80;;
35506;SDS011;36461;52.018;21.036;2022-10-31T09:51:57;20.32;;;15.72;;
35506;SDS011;36461;52.018;21.036;2022-10-31T09:54:32;21.17;;;16.23;;
35506;SDS011;36461;52.018;21.036;2022-10-31T09:57:05;22.37;;;16.70;;
35506;SDS011;36461;52.018;21.036;2022-10-31T09:59:37;22.80;;;16.55;;
35506;SDS011;36461;52.018;21.036;2022-10-31T10:02:10;20.97;;;15.78;;
35506;SDS011;36461;52.018;21.036;2022-10-31T10:04:46;20.92;;;16.97;;
35506;SDS011;36461;52.018;21.036;2022-10-31T10:25:22;20.37;;;16.82;;
35506;SDS011;36461;52.018;21.036;2022-10-31T10:30:43;23.50;;;16.97;;
35506;SDS011;36461;52.018;21.036;2022-10-31T10:33:27;24.23;;;17.45;;
35506;SDS011;36461;52.018;21.036;2022-10-31T10:35:53;23.70;;;18.30;;
35506;SDS011;36461;52.018;21.036;2022-10-31T10:40:56;22.62;;;17.73;;
35506;SDS011;36461;52.018;21.036;2022-10-31T10:43:31;21.65;;;17.52;;
35506;SDS011;36461;52.018;21.036;2022-10-31T10:55:16;26.95;;;19.57;;
35506;SDS011;36461;52.018;21.036;2022-10-31T11:00:26;24.92;;;19.60;;
35506;SDS011;36461;52.018;21.036;2022-10-31T11:03:01;27.20;;;19.67;;
35506;SDS011;36461;52.018;21.036;2022-10-31T11:05:33;26.00;;;20.15;;
35506;SDS011;36461;52.018;21.036;2022-10-31T11:08:50;26.93;;;20.08;;
35506;SDS011;36461;52.018;21.036;2022-10-31T11:11:01;26.85;;;20.52;;
35506;SDS011;36461;52.018;21.036;2022-10-31T11:13:32;28.07;;;21.62;;
35506;SDS011;36461;52.018;21.036;2022-10-31T11:16:43;27.25;;;20.72;;
35506;SDS011;36461;52.018;21.036;2022-10-31T11:18:39;27.82;;;20.92;;
35506;SDS011;36461;52.018;21.036;2022-10-31T11:21:23;24.30;;;19.37;;
35506;SDS011;36461;52.018;21.036;2022-10-31T11:26:37;25.68;;;19.85;;
35506;SDS011;36461;52.018;21.036;2022-10-31T11:29:11;23.65;;;18.92;;
35506;SDS011;36461;52.018;21.036;2022-10-31T11:31:41;23.77;;;18.48;;
35506;SDS011;36461;52.018;21.036;2022-10-31T11:34:18;20.80;;;16.62;;
35506;SDS011;36461;52.018;21.036;2022-10-31T11:37:04;18.98;;;15.75;;
35506;SDS011;36461;52.018;21.036;2022-10-31T11:39:46;20.12;;;16.57;;
35506;SDS011;36461;52.018;21.036;2022-10-31T11:42:20;20.57;;;15.80;;
35506;SDS011;36461;52.018;21.036;2022-10-31T11:44:49;19.25;;;15.68;;
35506;SDS011;36461;52.018;21.036;2022-10-31T11:47:17;20.82;;;16.02;;
35506;SDS011;36461;52.018;21.036;2022-10-31T11:49:54;20.35;;;16.73;;
35506;SDS011;36461;52.018;21.036;2022-10-31T11:52:24;23.45;;;16.55;;
35506;SDS011;36461;52.018;21.036;2022-10-31T11:54:55;21.12;;;17.02;;
35506;SDS011;36461;52.018;21.036;2022-10-31T11:57:29;18.50;;;15.05;;
35506;SDS011;36461;52.018;21.036;2022-10-31T12:00:00;21.65;;;17.45;;
35506;SDS011;36461;52.018;21.036;2022-10-31T12:02:31;22.07;;;16.17;;
35506;SDS011;36461;52.018;21.036;2022-10-31T12:05:02;20.30;;;17.40;;
35506;SDS011;36461;52.018;21.036;2022-10-31T12:07:36;19.15;;;16.37;;
35506;SDS011;36461;52.018;21.036;2022-10-31T12:15:43;20.60;;;16.32;;
35506;SDS011;36461;52.018;21.036;2022-10-31T12:29:35;18.35;;;14.80;;
35506;SDS011;36461;52.018;21.036;2022-10-31T12:44:05;25.17;;;18.17;;
35506;SDS011;36461;52.018;21.036;2022-10-31T12:46:51;20.90;;;16.27;;
35506;SDS011;36461;52.018;21.036;2022-10-31T12:58:32;22.95;;;17.32;;
35506;SDS011;36461;52.018;21.036;2022-10-31T13:03:52;22.45;;;17.23;;
35506;SDS011;36461;52.018;21.036;2022-10-31T13:06:45;23.50;;;17.27;;
35506;SDS011;36461;52.018;21.036;2022-10-31T13:09:16;22.37;;;17.25;;
35506;SDS011;36461;52.018;21.036;2022-10-31T13:11:55;23.45;;;18.15;;
35506;SDS011;36461;52.018;21.036;2022-10-31T13:14:39;25.10;;;17.75;;
35506;SDS011;36461;52.018;21.036;2022-10-31T13:17:22;22.15;;;17.37;;
35506;SDS011;36461;52.018;21.036;2022-10-31T13:22:49;24.40;;;17.48;;
35506;SDS011;36461;52.018;21.036;2022-10-31T13:25:21;25.17;;;18.07;;
35506;SDS011;36461;52.018;21.036;2022-10-31T13:27:58;25.65;;;17.45;;
35506;SDS011;36461;52.018;21.036;2022-10-31T13:30:51;27.93;;;17.92;;
35506;SDS011;36461;52.018;21.036;2022-10-31T13:33:21;26.65;;;18.42;;
35506;SDS011;36461;52.018;21.036;2022-10-31T13:36:11;27.37;;;18.20;;
35506;SDS011;36461;52.018;21.036;2022-10-31T13:38:56;23.47;;;16.65;;
35506;SDS011;36461;52.018;21.036;2022-10-31T13:41:32;30.85;;;18.37;;
35506;SDS011;36461;52.018;21.036;2022-10-31T13:46:51;24.35;;;17.17;;
35506;SDS011;36461;52.018;21.036;2022-10-31T13:52:43;26.45;;;18.05;;
35506;SDS011;36461;52.018;21.036;2022-10-31T13:54:40;25.90;;;17.52;;
35506;SDS011;36461;52.018;21.036;2022-10-31T13:57:15;27.20;;;18.02;;
35506;SDS011;36461;52.018;21.036;2022-10-31T13:59:58;23.83;;;17.52;;
35506;SDS011;36461;52.018;21.036;2022-10-31T14:02:26;26.02;;;18.85;;
35506;SDS011;36461;52.018;21.036;2022-10-31T14:05:04;23.95;;;17.80;;
35506;SDS011;36461;52.018;21.036;2022-10-31T14:07:32;26.55;;;18.00;;
35506;SDS011;36461;52.018;21.036;2022-10-31T14:10:01;26.75;;;18.52;;
35506;SDS011;36461;52.018;21.036;2022-10-31T14:12:42;29.27;;;19.50;;
35506;SDS011;36461;52.018;21.036;2022-10-31T14:15:16;28.55;;;19.40;;
35506;SDS011;36461;52.018;21.036;2022-10-31T14:17:56;28.12;;;19.00;;
35506;SDS011;36461;52.018;21.036;2022-10-31T14:28:45;29.98;;;18.85;;
35506;SDS011;36461;52.018;21.036;2022-10-31T14:40:17;28.42;;;19.25;;
35506;SDS011;36461;52.018;21.036;2022-10-31T14:43:13;31.40;;;20.70;;
35506;SDS011;36461;52.018;21.036;2022-10-31T14:45:59;34.00;;;22.22;;
35506;SDS011;36461;52.018;21.036;2022-10-31T14:48:45;38.85;;;21.97;;
35506;SDS011;36461;52.018;21.036;2022-10-31T14:51:28;33.78;;;20.65;;
35506;SDS011;36461;52.018;21.036;2022-10-31T14:54:03;31.62;;;21.33;;
35506;SDS011;36461;52.018;21.036;2022-10-31T14:56:33;30.35;;;21.50;;
35506;SDS011;36461;52.018;21.036;2022-10-31T14:59:06;32.10;;;21.62;;
35506;SDS011;36461;52.018;21.036;2022-10-31T15:01:38;34.67;;;22.25;;
35506;SDS011;36461;52.018;21.036;2022-10-31T15:04:19;33.25;;;21.33;;
35506;SDS011;36461;52.018;21.036;2022-10-31T15:07:05;30.02;;;21.12;;
35506;SDS011;36461;52.018;21.036;2022-10-31T15:09:36;33.83;;;22.67;;
35506;SDS011;36461;52.018;21.036;2022-10-31T15:14:54;35.30;;;21.50;;
35506;SDS011;36461;52.018;21.036;2022-10-31T15:17:22;37.30;;;24.02;;
35506;SDS011;36461;52.018;21.036;2022-10-31T15:19:51;32.95;;;21.42;;
35506;SDS011;36461;52.018;21.036;2022-10-31T15:22:20;34.98;;;21.02;;
35506;SDS011;36461;52.018;21.036;2022-10-31T15:24:49;36.68;;;22.82;;
35506;SDS011;36461;52.018;21.036;2022-10-31T15:27:21;38.13;;;24.18;;
35506;SDS011;36461;52.018;21.036;2022-10-31T15:29:54;37.45;;;23.60;;
35506;SDS011;36461;52.018;21.036;2022-10-31T15:32:25;38.63;;;24.95;;
35506;SDS011;36461;52.018;21.036;2022-10-31T15:34:55;39.63;;;25.52;;
35506;SDS011;36461;52.018;21.036;2022-10-31T15:37:23;49.03;;;25.00;;
35506;SDS011;36461;52.018;21.036;2022-10-31T15:39:51;41.70;;;27.17;;
35506;SDS011;36461;52.018;21.036;2022-10-31T15:47:54;36.40;;;22.75;;
35506;SDS011;36461;52.018;21.036;2022-10-31T15:50:38;45.25;;;28.65;;
35506;SDS011;36461;52.018;21.036;2022-10-31T15:53:14;43.38;;;26.60;;
35506;SDS011;36461;52.018;21.036;2022-10-31T15:55:55;42.67;;;24.65;;
35506;SDS011;36461;52.018;21.036;2022-10-31T15:58:39;40.63;;;23.80;;
35506;SDS011;36461;52.018;21.036;2022-10-31T16:01:31;39.00;;;23.85;;
35506;SDS011;36461;52.018;21.036;2022-10-31T16:04:02;42.88;;;25.60;;
35506;SDS011;36461;52.018;21.036;2022-10-31T16:06:39;47.62;;;28.32;;
35506;SDS011;36461;52.018;21.036;2022-10-31T16:09:21;37.83;;;22.82;;
35506;SDS011;36461;52.018;21.036;2022-10-31T16:11:50;35.45;;;22.77;;
35506;SDS011;36461;52.018;21.036;2022-10-31T16:16:47;44.70;;;25.40;;
35506;SDS011;36461;52.018;21.036;2022-10-31T16:22:06;52.33;;;30.40;;
35506;SDS011;36461;52.018;21.036;2022-10-31T16:24:33;53.33;;;30.40;;
35506;SDS011;36461;52.018;21.036;2022-10-31T16:27:05;57.93;;;30.08;;
35506;SDS011;36461;52.018;21.036;2022-10-31T16:29:38;56.30;;;30.23;;
35506;SDS011;36461;52.018;21.036;2022-10-31T16:32:32;55.38;;;29.75;;
35506;SDS011;36461;52.018;21.036;2022-10-31T16:37:45;56.08;;;28.83;;
35506;SDS011;36461;52.018;21.036;2022-10-31T16:40:12;56.68;;;29.27;;
35506;SDS011;36461;52.018;21.036;2022-10-31T16:42:41;50.88;;;27.80;;
35506;SDS011;36461;52.018;21.036;2022-10-31T16:45:13;51.75;;;27.45;;
35506;SDS011;36461;52.018;21.036;2022-10-31T16:47:48;48.42;;;28.80;;
35506;SDS011;36461;52.018;21.036;2022-10-31T16:50:17;50.88;;;28.77;;
35506;SDS011;36461;52.018;21.036;2022-10-31T16:52:50;48.23;;;26.52;;
35506;SDS011;36461;52.018;21.036;2022-10-31T16:55:18;55.43;;;27.93;;
35506;SDS011;36461;52.018;21.036;2022-10-31T16:57:54;55.12;;;28.32;;
35506;SDS011;36461;52.018;21.036;2022-10-31T17:00:25;50.70;;;28.90;;
35506;SDS011;36461;52.018;21.036;2022-10-31T17:02:54;46.75;;;28.25;;
35506;SDS011;36461;52.018;21.036;2022-10-31T17:05:23;51.55;;;29.23;;
35506;SDS011;36461;52.018;21.036;2022-10-31T17:07:52;52.98;;;28.27;;
35506;SDS011;36461;52.018;21.036;2022-10-31T17:10:18;49.42;;;27.50;;
35506;SDS011;36461;52.018;21.036;2022-10-31T17:12:47;49.18;;;27.50;;
35506;SDS011;36461;52.018;21.036;2022-10-31T17:15:16;50.90;;;28.83;;
35506;SDS011;36461;52.018;21.036;2022-10-31T17:17:47;48.00;;;28.32;;
35506;SDS011;36461;52.018;21.036;2022-10-31T17:22:54;48.58;;;28.42;;
35506;SDS011;36461;52.018;21.036;2022-10-31T17:25:22;47.80;;;28.92;;
35506;SDS011;36461;52.018;21.036;2022-10-31T17:27:52;43.98;;;26.30;;
35506;SDS011;36461;52.018;21.036;2022-10-31T17:32:46;40.52;;;24.80;;
35506;SDS011;36461;52.018;21.036;2022-10-31T17:35:15;45.48;;;26.00;;
35506;SDS011;36461;52.018;21.036;2022-10-31T17:37:43;42.00;;;25.17;;
35506;SDS011;36461;52.018;21.036;2022-10-31T17:40:12;46.92;;;26.87;;